createdAt,value
2018-08-09T00:00:21.890Z,22.50
2018-08-09T00:02:52.726Z,22.60
2018-08-09T00:05:22.258Z,22.60
2018-08-09T00:21:02.107Z,22.70
2018-08-09T00:23:31.646Z,22.30
2018-08-09T00:26:01.159Z,22.40
2018-08-09T00:28:30.614Z,22.40
2018-08-09T00:30:59.974Z,22.20
2018-08-09T00:33:29.348Z,22.10
2018-08-09T00:36:00.876Z,22.20
2018-08-09T00:38:30.466Z,22.20
2018-08-09T00:40:59.810Z,22.30
2018-08-09T00:43:29.251Z,22.40
2018-08-09T00:45:58.610Z,22.50
2018-08-09T00:48:28.070Z,22.50
2018-08-09T00:50:57.601Z,22.50
2018-08-09T00:53:27.734Z,22.60
2018-08-09T00:55:57.175Z,22.60
2018-08-09T00:58:26.747Z,22.70
2018-08-09T01:00:56.295Z,22.70
2018-08-09T01:03:27.494Z,22.70
2018-08-09T01:05:56.872Z,22.70
2018-08-09T01:08:26.798Z,22.70
2018-08-09T01:10:56.238Z,22.70
2018-08-09T01:13:25.855Z,22.80
2018-08-09T01:15:55.370Z,22.80
2018-08-09T01:18:24.770Z,22.80
2018-08-09T01:20:54.237Z,22.80
2018-08-09T01:23:23.582Z,22.80
2018-08-09T01:25:53.134Z,22.80
2018-08-09T01:28:22.643Z,22.80
2018-08-09T01:30:52.794Z,22.80
2018-08-09T01:33:22.152Z,22.80
2018-08-09T01:35:51.530Z,22.80
2018-08-09T01:38:21.050Z,22.80
2018-08-09T01:40:50.745Z,22.80
2018-08-09T01:43:31.303Z,22.80
2018-08-09T01:46:00.794Z,22.80
2018-08-09T01:48:30.378Z,22.80
2018-08-09T01:51:00.013Z,22.80
2018-08-09T01:53:29.538Z,22.80
2018-08-09T01:55:59.126Z,22.80
2018-08-09T01:58:30.507Z,22.80
2018-08-09T02:01:00.851Z,22.70
2018-08-09T02:03:30.294Z,22.70
2018-08-09T02:05:59.706Z,22.70
2018-08-09T02:08:29.226Z,22.70
2018-08-09T02:10:58.775Z,22.70
2018-08-09T02:13:28.320Z,22.70
2018-08-09T02:15:57.723Z,22.60
2018-08-09T02:18:27.300Z,22.60
2018-08-09T02:20:56.648Z,22.40
2018-08-09T02:23:26.051Z,22.10
2018-08-09T02:25:55.412Z,22.00
2018-08-09T02:28:24.938Z,21.90
2018-08-09T02:30:54.395Z,21.90
2018-08-09T02:33:24.019Z,22.00
2018-08-09T02:35:53.422Z,21.90
2018-08-09T02:38:23.198Z,21.90
2018-08-09T02:40:52.995Z,21.90
2018-08-09T02:43:22.591Z,21.90
2018-08-09T02:45:53.048Z,22.00
2018-08-09T02:48:22.610Z,22.00
2018-08-09T02:50:52.983Z,22.00
2018-08-09T02:53:22.548Z,22.00
2018-08-09T02:55:53.005Z,21.90
2018-08-09T02:58:22.396Z,22.00
2018-08-09T03:00:56.990Z,21.90
2018-08-09T03:03:26.487Z,21.90
2018-08-09T03:05:56.720Z,21.90
2018-08-09T03:08:26.282Z,21.90
2018-08-09T03:10:55.674Z,21.90
2018-08-09T03:13:25.011Z,21.90
2018-08-09T03:15:54.375Z,21.80
2018-08-09T03:18:23.940Z,21.80
2018-08-09T03:20:53.499Z,21.70
2018-08-09T03:23:22.987Z,21.70
2018-08-09T03:25:53.294Z,21.60
2018-08-09T03:28:22.871Z,21.60
2018-08-09T03:30:53.076Z,21.60
2018-08-09T03:33:22.551Z,21.60
2018-08-09T03:35:53.002Z,21.50
2018-08-09T03:38:22.382Z,21.50
2018-08-09T03:40:51.727Z,21.50
2018-08-09T03:43:21.344Z,21.40
2018-08-09T03:45:50.730Z,21.40
2018-08-09T03:48:20.235Z,21.40
2018-08-09T03:50:49.822Z,21.30
2018-08-09T03:53:19.330Z,21.30
2018-08-09T03:55:48.871Z,21.30
2018-08-09T03:58:18.442Z,21.30
2018-08-09T04:00:47.775Z,21.30
2018-08-09T04:03:17.171Z,21.30
2018-08-09T04:05:46.502Z,21.30
2018-08-09T04:08:16.086Z,21.30
2018-08-09T04:10:45.578Z,21.30
2018-08-09T04:13:15.023Z,21.40
2018-08-09T04:15:44.397Z,21.30
2018-08-09T04:18:13.888Z,21.40
2018-08-09T04:20:43.298Z,21.40
2018-08-09T04:23:12.812Z,21.30
2018-08-09T04:25:42.202Z,21.30
2018-08-09T04:28:11.610Z,21.30
2018-08-09T04:30:40.977Z,21.40
2018-08-09T04:33:10.466Z,21.40
2018-08-09T04:35:39.865Z,21.40
2018-08-09T04:38:09.371Z,21.40
2018-08-09T04:40:38.922Z,21.40
2018-08-09T04:43:08.466Z,21.40
2018-08-09T04:45:37.999Z,21.40
2018-08-09T04:48:07.546Z,21.40
2018-08-09T04:50:36.857Z,21.40
2018-08-09T04:53:06.266Z,21.40
2018-08-09T04:55:35.599Z,21.50
2018-08-09T04:58:05.172Z,21.50
2018-08-09T05:00:34.715Z,21.50
2018-08-09T05:03:04.543Z,21.60
2018-08-09T05:05:34.050Z,21.60
2018-08-09T05:08:03.459Z,21.60
2018-08-09T05:10:32.822Z,21.70
2018-08-09T05:13:02.334Z,21.70
2018-08-09T05:15:31.670Z,21.80
2018-08-09T05:18:01.267Z,21.80
2018-08-09T05:20:30.802Z,21.90
2018-08-09T05:23:00.428Z,21.90
2018-08-09T05:25:30.922Z,21.90
2018-08-09T05:28:02.088Z,21.90
2018-08-09T05:30:33.134Z,22.00
2018-08-09T05:33:02.609Z,22.00
2018-08-09T05:35:32.003Z,22.10
2018-08-09T05:38:01.460Z,22.10
2018-08-09T05:40:31.096Z,22.10
2018-08-09T05:43:00.682Z,22.10
2018-08-09T05:45:30.145Z,22.20
2018-08-09T05:47:59.776Z,22.20
2018-08-09T05:50:29.215Z,22.30
2018-08-09T05:52:58.687Z,22.30
2018-08-09T05:55:28.283Z,22.40
2018-08-09T05:57:57.868Z,22.40
2018-08-09T06:00:27.391Z,22.40
2018-08-09T06:02:57.036Z,22.40
2018-08-09T06:05:26.475Z,22.40
2018-08-09T06:07:55.910Z,22.50
2018-08-09T06:10:25.515Z,22.50
2018-08-09T06:12:54.997Z,22.60
2018-08-09T06:15:24.568Z,22.70
2018-08-09T06:22:50.806Z,22.80
2018-08-09T06:25:20.294Z,22.90
2018-08-09T06:27:54.725Z,23.00
2018-08-09T06:30:24.339Z,23.00
2018-08-09T06:32:53.868Z,23.00
2018-08-09T06:35:26.403Z,23.20
2018-08-09T06:37:55.849Z,23.30
2018-08-09T06:40:25.393Z,23.50
2018-08-09T06:42:54.902Z,23.80
2018-08-09T06:45:24.332Z,24.10
2018-08-09T06:47:54.731Z,24.50
2018-08-09T06:50:24.130Z,25.00
2018-08-09T06:52:53.834Z,25.40
2018-08-09T06:55:23.282Z,25.80
2018-08-09T06:57:53.695Z,26.30
2018-08-09T07:00:23.365Z,26.50
2018-08-09T07:02:53.906Z,26.60
2018-08-09T07:05:23.506Z,26.70
2018-08-09T07:07:53.870Z,26.80
2018-08-09T07:10:23.340Z,27.00
2018-08-09T07:12:52.889Z,27.20
2018-08-09T07:15:22.541Z,27.40
2018-08-09T07:17:52.017Z,27.50
2018-08-09T07:20:21.557Z,27.40
2018-08-09T07:22:50.970Z,27.50
2018-08-09T07:25:20.483Z,27.40
2018-08-09T07:27:49.934Z,27.20
2018-08-09T07:30:20.714Z,27.00
2018-08-09T07:32:50.200Z,26.90
2018-08-09T07:35:19.853Z,26.80
2018-08-09T07:37:49.507Z,26.80
2018-08-09T07:40:19.190Z,26.90
2018-08-09T07:42:48.826Z,26.90
2018-08-09T07:45:18.336Z,27.30
2018-08-09T07:47:47.840Z,27.90
2018-08-09T07:50:17.472Z,28.50
2018-08-09T07:52:46.963Z,29.00
2018-08-09T07:55:16.465Z,29.00
2018-08-09T07:57:46.099Z,28.90
2018-08-09T08:00:15.581Z,28.70
2018-08-09T08:02:46.385Z,28.40
2018-08-09T08:05:15.783Z,28.20
2018-08-09T08:07:45.387Z,28.00
2018-08-09T08:10:14.950Z,27.70
2018-08-09T08:12:44.562Z,27.70
2018-08-09T08:15:14.046Z,27.70
2018-08-09T08:17:43.692Z,27.70
2018-08-09T08:20:13.361Z,27.70
2018-08-09T08:22:42.982Z,27.60
2018-08-09T08:25:12.441Z,27.60
2018-08-09T08:27:42.078Z,27.50
2018-08-09T08:30:13.622Z,27.30
2018-08-09T08:32:43.826Z,27.10
2018-08-09T08:35:13.238Z,27.10
2018-08-09T08:37:42.810Z,27.00
2018-08-09T08:40:12.235Z,26.90
2018-08-09T08:42:41.706Z,27.00
2018-08-09T08:45:13.811Z,27.10
2018-08-09T08:47:43.924Z,27.30
2018-08-09T08:50:13.706Z,27.50
2018-08-09T08:52:44.855Z,27.70
2018-08-09T08:55:14.447Z,27.80
2018-08-09T08:57:44.088Z,27.90
2018-08-09T09:00:14.043Z,27.90
2018-08-09T09:02:43.914Z,27.70
2018-08-09T09:05:13.869Z,27.50
2018-08-09T09:07:43.304Z,27.40
2018-08-09T09:10:14.036Z,27.30
2018-08-09T09:12:43.643Z,27.30
2018-08-09T09:15:15.406Z,27.30
2018-08-09T09:17:45.326Z,27.30
2018-08-09T09:20:15.994Z,27.30
2018-08-09T09:22:45.679Z,27.20
2018-08-09T09:25:15.146Z,27.10
2018-08-09T09:27:44.810Z,27.10
2018-08-09T09:30:15.767Z,26.90
2018-08-09T09:32:45.554Z,26.90
2018-08-09T09:35:14.974Z,26.90
2018-08-09T09:37:44.704Z,26.90
2018-08-09T09:40:14.097Z,26.90
2018-08-09T09:42:43.647Z,26.90
2018-08-09T09:45:13.062Z,26.90
2018-08-09T09:47:42.422Z,26.90
2018-08-09T09:50:12.565Z,27.00
2018-08-09T09:52:41.974Z,27.00
2018-08-09T09:55:16.014Z,27.00
2018-08-09T09:57:45.576Z,27.10
2018-08-09T10:00:19.997Z,27.10
2018-08-09T10:02:49.304Z,27.00
2018-08-09T10:05:18.699Z,27.00
2018-08-09T10:07:48.310Z,27.00
2018-08-09T10:10:17.926Z,26.90
2018-08-09T10:12:47.292Z,26.80
2018-08-09T10:15:16.815Z,27.10
2018-08-09T10:17:46.200Z,27.40
2018-08-09T10:20:15.643Z,27.70
2018-08-09T10:22:45.054Z,27.80
2018-08-09T10:25:14.411Z,27.80
2018-08-09T10:27:44.100Z,27.90
2018-08-09T10:30:13.515Z,27.80
2018-08-09T10:32:42.986Z,27.80
2018-08-09T10:35:12.484Z,27.80
2018-08-09T10:37:41.917Z,27.70
2018-08-09T10:40:11.262Z,27.60
2018-08-09T10:42:40.612Z,27.50
2018-08-09T10:45:10.137Z,27.50
2018-08-09T10:47:39.618Z,27.50
2018-08-09T10:50:09.177Z,27.30
2018-08-09T10:52:38.686Z,27.10
2018-08-09T10:55:08.264Z,27.00
2018-08-09T10:57:37.789Z,27.00
2018-08-09T11:00:09.379Z,27.10
2018-08-09T11:02:38.779Z,27.20
2018-08-09T11:05:08.849Z,27.10
2018-08-09T11:07:38.566Z,27.10
2018-08-09T11:10:09.081Z,27.20
2018-08-09T11:12:38.510Z,27.00
2018-08-09T11:15:10.156Z,27.10
2018-08-09T11:17:42.308Z,27.10
2018-08-09T11:20:11.850Z,27.20
2018-08-09T11:22:41.190Z,27.30
2018-08-09T11:25:10.770Z,27.30
2018-08-09T11:27:40.343Z,27.30
2018-08-09T11:30:09.759Z,27.30
2018-08-09T11:32:39.254Z,27.10
2018-08-09T11:35:08.751Z,27.10
2018-08-09T11:37:38.157Z,27.10
2018-08-09T11:40:07.702Z,27.00
2018-08-09T11:42:37.408Z,27.00
2018-08-09T11:45:06.809Z,27.00
2018-08-09T11:47:36.178Z,26.90
2018-08-09T11:50:06.121Z,26.90
2018-08-09T11:54:34.486Z,26.90
2018-08-09T11:57:03.972Z,26.90
2018-08-09T11:59:33.314Z,26.80
2018-08-09T12:02:02.813Z,26.80
2018-08-09T12:04:32.471Z,26.90
2018-08-09T12:07:02.056Z,26.90
2018-08-09T12:09:31.925Z,27.00
2018-08-09T12:12:01.430Z,27.10
2018-08-09T12:14:30.963Z,27.20
2018-08-09T12:17:00.554Z,27.40
2018-08-09T12:19:32.012Z,27.50
2018-08-09T12:22:01.667Z,27.50
2018-08-09T12:24:31.115Z,27.60
2018-08-09T12:27:00.565Z,27.70
2018-08-09T12:29:29.970Z,27.80
2018-08-09T12:31:59.481Z,27.80
2018-08-09T12:34:29.019Z,27.90
2018-08-09T12:41:53.297Z,28.00
2018-08-09T12:44:22.723Z,27.60
2018-08-09T12:46:52.126Z,27.60
2018-08-09T12:49:21.718Z,27.60
2018-08-09T12:51:51.228Z,27.60
2018-08-09T12:54:20.674Z,27.60
2018-08-09T12:56:50.118Z,27.70
2018-08-09T12:59:19.751Z,27.70
2018-08-09T13:01:49.362Z,27.80
2018-08-09T13:04:19.365Z,27.80
2018-08-09T13:06:48.794Z,27.80
2018-08-09T13:09:18.320Z,27.80
2018-08-09T13:11:47.933Z,27.80
2018-08-09T13:14:17.587Z,27.80
2018-08-09T13:16:47.062Z,27.80
2018-08-09T13:19:17.474Z,27.80
2018-08-09T13:21:47.915Z,27.80
2018-08-09T13:24:17.288Z,27.80
2018-08-09T13:26:46.648Z,27.70
2018-08-09T13:29:16.070Z,27.70
2018-08-09T13:31:45.534Z,27.70
2018-08-09T13:34:15.072Z,27.70
2018-08-09T13:36:44.550Z,27.70
2018-08-09T13:39:14.731Z,27.80
2018-08-09T13:41:45.261Z,27.80
2018-08-09T13:44:15.314Z,27.90
2018-08-09T13:46:44.878Z,27.90
2018-08-09T13:49:14.432Z,27.80
2018-08-09T13:51:44.046Z,28.00
2018-08-09T13:54:13.595Z,28.10
2018-08-09T13:56:42.994Z,28.10
2018-08-09T13:59:12.395Z,28.00
2018-08-09T14:01:41.792Z,28.00
2018-08-09T14:04:11.234Z,28.10
2018-08-09T14:06:40.612Z,28.30
2018-08-09T14:09:12.169Z,28.30
2018-08-09T14:11:42.166Z,28.30
2018-08-09T14:14:11.932Z,28.30
2018-08-09T14:16:41.406Z,28.30
2018-08-09T14:19:10.854Z,28.30
2018-08-09T14:21:40.410Z,28.30
2018-08-09T14:24:10.314Z,28.30
2018-08-09T14:26:40.138Z,28.30
2018-08-09T14:29:09.711Z,28.30
2018-08-09T14:31:39.530Z,28.30
2018-08-09T14:34:09.114Z,28.50
2018-08-09T14:36:38.647Z,28.50
2018-08-09T14:39:10.479Z,28.50
2018-08-09T14:41:39.983Z,28.60
2018-08-09T14:44:10.332Z,28.70
2018-08-09T14:46:39.766Z,28.70
2018-08-09T14:49:09.337Z,28.80
2018-08-09T14:51:38.823Z,28.90
2018-08-09T14:54:08.240Z,28.90
2018-08-09T14:56:37.619Z,28.90
2018-08-09T14:59:07.242Z,29.10
2018-08-09T15:01:36.881Z,29.10
2018-08-09T15:04:06.720Z,29.00
2018-08-09T15:06:36.326Z,28.90
2018-08-09T15:09:08.621Z,28.90
2018-08-09T15:11:38.113Z,28.90
2018-08-09T15:14:08.270Z,28.90
2018-08-09T15:16:37.822Z,29.00
2018-08-09T15:19:08.308Z,29.00
2018-08-09T15:21:37.718Z,29.00
2018-08-09T15:24:07.474Z,28.90
2018-08-09T15:26:36.950Z,28.90
2018-08-09T15:29:07.039Z,28.90
2018-08-09T15:31:36.484Z,28.90
2018-08-09T15:34:06.076Z,29.10
2018-08-09T15:36:35.798Z,29.10
2018-08-09T15:39:09.630Z,29.30
2018-08-09T15:41:39.710Z,29.40
2018-08-09T15:44:09.703Z,29.50
2018-08-09T15:51:34.727Z,29.40
2018-08-09T15:54:04.206Z,29.40
2018-08-09T15:56:33.867Z,29.40
2018-08-09T15:59:03.532Z,29.40
2018-08-09T16:01:32.945Z,29.30
2018-08-09T16:04:02.450Z,29.30
2018-08-09T16:06:31.835Z,29.20
2018-08-09T16:09:01.242Z,29.20
2018-08-09T16:11:30.676Z,29.00
2018-08-09T16:14:00.063Z,29.00
2018-08-09T16:16:29.497Z,28.90
2018-08-09T16:18:59.012Z,28.90
2018-08-09T16:21:28.599Z,28.90
2018-08-09T16:23:58.142Z,28.90
2018-08-09T16:26:27.702Z,28.90
2018-08-09T16:28:58.376Z,29.00
2018-08-09T16:31:27.926Z,29.10
2018-08-09T16:33:57.506Z,29.10
2018-08-09T16:36:26.965Z,29.10
2018-08-09T16:43:52.622Z,29.20
2018-08-09T16:46:22.278Z,29.20
2018-08-09T16:48:51.736Z,29.10
2018-08-09T16:51:21.195Z,29.10
2018-08-09T16:53:50.682Z,29.00
2018-08-09T16:56:20.383Z,29.10
2018-08-09T16:58:50.009Z,29.00
2018-08-09T17:01:19.378Z,29.00
2018-08-09T17:03:49.052Z,28.90
2018-08-09T17:06:18.558Z,28.90
2018-08-09T17:08:48.086Z,28.90
2018-08-09T17:11:17.583Z,28.90
2018-08-09T17:15:37.679Z,29.00
2018-08-09T17:18:07.127Z,29.00
2018-08-09T17:20:36.526Z,28.90
2018-08-09T17:23:06.322Z,29.00
2018-08-09T17:25:35.848Z,28.90
2018-08-09T17:28:05.314Z,28.80
2018-08-09T17:30:34.847Z,28.60
2018-08-09T17:33:04.470Z,28.50
2018-08-09T17:35:33.862Z,28.40
2018-08-09T17:38:03.348Z,28.40
2018-08-09T17:40:34.028Z,28.30
2018-08-09T17:43:04.656Z,28.40
2018-08-09T17:45:35.897Z,28.40
2018-08-09T17:48:05.626Z,28.30
2018-08-09T17:50:35.043Z,28.20
2018-08-09T17:53:05.231Z,28.10
2018-08-09T17:55:34.827Z,28.00
2018-08-09T17:58:04.814Z,28.10
2018-08-09T18:00:35.184Z,28.10
2018-08-09T18:03:04.875Z,28.00
2018-08-09T18:05:34.258Z,28.10
2018-08-09T18:08:03.693Z,28.00
2018-08-09T18:10:34.875Z,28.00
2018-08-09T18:13:04.326Z,28.00
2018-08-09T18:15:33.900Z,28.00
2018-08-09T18:18:03.807Z,28.00
2018-08-09T18:20:34.978Z,28.00
2018-08-09T18:23:04.504Z,28.00
2018-08-09T18:25:33.927Z,28.00
2018-08-09T18:28:03.539Z,27.90
2018-08-09T18:30:33.066Z,27.80
2018-08-09T18:33:02.514Z,27.70
2018-08-09T18:35:31.918Z,27.50
2018-08-09T18:38:01.332Z,27.40
2018-08-09T18:40:30.767Z,27.30
2018-08-09T18:43:00.209Z,27.10
2018-08-09T18:45:29.636Z,27.00
2018-08-09T18:47:59.233Z,26.90
2018-08-09T18:50:29.915Z,26.80
2018-08-09T18:52:59.379Z,26.60
2018-08-09T18:55:29.037Z,26.50
2018-08-09T18:57:58.592Z,26.30
2018-08-09T19:00:29.580Z,26.20
2018-08-09T19:02:59.199Z,26.00
2018-08-09T19:05:28.823Z,25.90
2018-08-09T19:07:58.799Z,25.80
2018-08-09T19:10:29.891Z,25.60
2018-08-09T19:12:59.395Z,25.40
2018-08-09T19:15:28.830Z,25.30
2018-08-09T19:17:58.594Z,25.10
2018-08-09T19:20:30.966Z,25.00
2018-08-09T19:23:00.585Z,24.90
2018-08-09T19:25:30.012Z,24.80
2018-08-09T19:27:59.672Z,24.70
2018-08-09T19:30:30.290Z,24.70
2018-08-09T19:32:59.874Z,24.70
2018-08-09T19:35:31.646Z,24.70
2018-08-09T19:38:01.064Z,24.60
2018-08-09T19:40:31.194Z,24.60
2018-08-09T19:43:00.805Z,24.50
2018-08-09T19:45:30.206Z,24.50
2018-08-09T19:47:59.631Z,24.50
2018-08-09T19:50:29.194Z,24.40
2018-08-09T19:52:58.816Z,24.40
2018-08-09T19:55:28.278Z,24.40
2018-08-09T19:57:58.699Z,24.40
2018-08-09T20:00:30.268Z,24.40
2018-08-09T20:02:59.854Z,24.40
2018-08-09T20:05:29.246Z,24.40
2018-08-09T20:07:58.868Z,24.40
2018-08-09T20:10:28.278Z,24.30
2018-08-09T20:12:57.724Z,24.20
2018-08-09T20:15:27.290Z,24.10
2018-08-09T20:17:56.773Z,24.00
2018-08-09T20:20:26.874Z,23.90
2018-08-09T20:22:56.381Z,23.80
2018-08-09T20:25:25.965Z,23.70
2018-08-09T20:27:55.390Z,23.50
2018-08-09T20:30:24.914Z,23.40
2018-08-09T20:32:54.422Z,23.20
2018-08-09T20:35:24.703Z,23.10
2018-08-09T20:37:54.168Z,23.10
2018-08-09T20:40:24.414Z,23.00
2018-08-09T20:42:54.522Z,23.00
2018-08-09T20:45:24.748Z,23.00
2018-08-09T20:47:54.418Z,23.00
2018-08-09T20:50:28.346Z,23.00
2018-08-09T20:52:57.961Z,22.90
2018-08-09T20:55:27.721Z,22.80
2018-08-09T20:57:57.525Z,22.80
2018-08-09T21:00:28.710Z,22.70
2018-08-09T21:02:59.590Z,22.70
2018-08-09T21:05:31.881Z,22.80
2018-08-09T21:08:01.402Z,22.70
2018-08-09T21:10:31.142Z,22.70
2018-08-09T21:13:01.164Z,22.80
2018-08-09T21:15:30.809Z,22.90
2018-08-09T21:18:00.253Z,23.00
2018-08-09T21:20:29.789Z,23.10
2018-08-09T21:22:59.987Z,23.20
2018-08-09T21:25:29.351Z,23.30
2018-08-09T21:27:59.812Z,23.40
2018-08-09T21:30:29.227Z,23.40
2018-08-09T21:32:59.810Z,23.40
2018-08-09T21:40:56.279Z,23.40
2018-08-09T21:43:25.774Z,23.10
2018-08-09T21:45:55.451Z,23.20
2018-08-09T21:48:24.811Z,23.20
2018-08-09T21:50:54.248Z,23.20
2018-08-09T21:53:23.862Z,23.10
2018-08-09T21:55:53.470Z,22.90
2018-08-09T21:58:22.859Z,22.90
2018-08-09T22:00:59.142Z,22.80
2018-08-09T22:03:32.974Z,22.70
2018-08-09T22:06:07.640Z,22.60
2018-08-09T22:08:42.558Z,22.50
2018-08-09T22:11:18.239Z,22.50
2018-08-09T22:18:53.251Z,22.40
2018-08-09T22:21:28.022Z,22.30
2018-08-09T22:23:57.626Z,22.20
2018-08-09T22:26:27.015Z,22.10
2018-08-09T22:28:56.527Z,22.10
2018-08-09T22:31:25.987Z,22.10
2018-08-09T22:33:56.814Z,22.10
2018-08-09T22:36:26.347Z,22.00
2018-08-09T22:38:55.900Z,21.90
2018-08-09T22:41:26.802Z,21.90
2018-08-09T22:43:56.247Z,21.80
2018-08-09T22:46:25.632Z,21.70
2018-08-09T22:48:55.046Z,21.60
2018-08-09T22:51:24.443Z,21.60
2018-08-09T22:53:53.838Z,21.50
2018-08-09T22:56:23.354Z,21.50
2018-08-09T22:58:52.889Z,21.50
2018-08-09T23:01:22.310Z,21.60
2018-08-09T23:03:51.915Z,21.60
2018-08-09T23:06:21.346Z,21.60
2018-08-09T23:08:50.836Z,21.60
2018-08-09T23:11:20.450Z,21.60
2018-08-09T23:13:49.870Z,21.60
2018-08-09T23:16:19.428Z,21.70
2018-08-09T23:18:48.817Z,21.70
2018-08-09T23:21:18.319Z,21.60
2018-08-09T23:23:47.700Z,21.60
2018-08-09T23:26:18.017Z,21.60
2018-08-09T23:28:47.431Z,21.60
2018-08-09T23:31:16.902Z,21.60
2018-08-09T23:33:46.462Z,21.60
2018-08-09T23:36:16.042Z,21.70
2018-08-09T23:38:45.578Z,21.60
2018-08-09T23:41:15.119Z,21.60
2018-08-09T23:43:44.892Z,21.60
2018-08-09T23:46:14.471Z,21.60
2018-08-09T23:48:44.078Z,21.60
2018-08-09T23:51:13.610Z,21.60
2018-08-09T23:53:43.158Z,21.60
2018-08-09T23:56:12.649Z,21.60
2018-08-09T23:58:42.427Z,21.60
